首页
METAR-TAF:

METAR-TAF

机场 :

拉贾赫穆恩德尔伊, 印度

纬度: 17-06-37N, 经度: 81-49-06E, 海拔: 46米

当前天气观测

该预报发布于29分钟前的01:00 UTC
风速5节,风向西转西南
温度 29°C
湿度 84%
气压 1005 hPa
能見度: 6000
少量云层高于2000英尺
多云层高于9000英尺

METAR: VORY 170100Z 24005KT 6000 FEW020 BKN090 29/26 Q1005 NOSIG

时间: 06:59 (01:29 UTC)

预报

该预报发布于2小时和29分钟前的23:00 UTC
预报有效从17日的 00点(UTC)到 18日的 06点(UTC)
风速8节,风向西南
能見度: 5000
散云层高于1500英尺
多云层高于10000英尺
短暂存在
从 17日的 00点(UTC)到 17日的 03点(UTC)
风速10节,风向西南
能見度: 3000
散云层高于1000英尺
多云层高于8000英尺
毛毛雨, 轻雾
成为
从 17日的 04点(UTC)到 17日的 06点(UTC)
风速10节,风向西南
能見度: 6000
散云层高于1500英尺
散云层高于2500英尺
短暂存在
从 17日的 10点(UTC)到 17日的 15点(UTC)
风速10节,风向西转西南
能見度: 3000
散云层高于1500英尺
少量云层高于3000英尺, 积雨云.
多云层高于8000英尺
短暂存在
从 17日的 23点(UTC)到 18日的 03点(UTC)
风速4节,风向多变
能見度: 3000
散云层高于1000英尺
散云层高于1500英尺
轻雾
成为
从 18日的 04点(UTC)到 18日的 06点(UTC)
风速10节,风向西南
能見度: 6000
散云层高于1500英尺
散云层高于2500英尺

TAF: VORY 162300Z 1700/1806 23008KT 5000 HZ SCT015 BKN100 TEMPO 1700/1703 23010KT 3000 DZ BR SCT010 BKN080 BECMG 1704/1706 22010KT 6000 SCT015 SCT025 TEMPO 1710/1715 24010KT 3000 .TSRA RA SCT015 FEW030CB BKN080 TEMPO 1723/1803 VRB04KT 3000 BR SCT010 SCT015 BECMG 1804/1806 22010KT 6000 SCT015 SCT025

超过4000个机场的气象观测和天气预报(METAR&TAF报告)。

可查询的气象台以黄色和红色小点在地图上表示。

将鼠标移到小点上方,可查看气象台名称。

然后点击查看天气观测和预报。

如需切换地图:点击带黑十字的绿色按钮放大地图;点击带横线的绿色按钮缩小地图;或者点击绿色箭头查看邻近地区的地图。


METAR-TAF: